sensor_id;sensor_type;location;lat;lon;timestamp;temperature;humidity
65203;HTU21D;51788;45.124;38.966;2023-01-13T00:01:09;-2.53;77.42
65203;HTU21D;51788;45.124;38.966;2023-01-13T00:03:36;-2.52;77.76
65203;HTU21D;51788;45.124;38.966;2023-01-13T00:06:04;-2.51;77.69
65203;HTU21D;51788;45.124;38.966;2023-01-13T00:08:30;-2.50;77.32
65203;HTU21D;51788;45.124;38.966;2023-01-13T00:10:56;-2.49;77.37
65203;HTU21D;51788;45.124;38.966;2023-01-13T00:13:22;-2.50;77.31
65203;HTU21D;51788;45.124;38.966;2023-01-13T00:15:59;-2.48;77.33
65203;HTU21D;51788;45.124;38.966;2023-01-13T00:18:26;-2.48;77.46
65203;HTU21D;51788;45.124;38.966;2023-01-13T00:21:15;-2.47;77.37
65203;HTU21D;51788;45.124;38.966;2023-01-13T00:23:42;-2.48;77.35
65203;HTU21D;51788;45.124;38.966;2023-01-13T00:26:12;-2.49;77.43
65203;HTU21D;51788;45.124;38.966;2023-01-13T00:28:38;-2.50;77.45
65203;HTU21D;51788;45.124;38.966;2023-01-13T00:31:09;-2.49;77.48
65203;HTU21D;51788;45.124;38.966;2023-01-13T00:33:35;-2.47;77.36
65203;HTU21D;51788;45.124;38.966;2023-01-13T00:36:03;-2.49;77.30
65203;HTU21D;51788;45.124;38.966;2023-01-13T00:38:31;-2.49;77.31
65203;HTU21D;51788;45.124;38.966;2023-01-13T00:40:59;-2.51;77.26
65203;HTU21D;51788;45.124;38.966;2023-01-13T00:43:26;-2.56;77.29
65203;HTU21D;51788;45.124;38.966;2023-01-13T00:45:53;-2.63;77.34
65203;HTU21D;51788;45.124;38.966;2023-01-13T00:48:20;-2.65;77.45
65203;HTU21D;51788;45.124;38.966;2023-01-13T00:50:56;-2.69;77.49
65203;HTU21D;51788;45.124;38.966;2023-01-13T00:53:23;-2.72;77.46
65203;HTU21D;51788;45.124;38.966;2023-01-13T00:55:49;-2.74;77.51
65203;HTU21D;51788;45.124;38.966;2023-01-13T00:58:15;-2.77;77.50
65203;HTU21D;51788;45.124;38.966;2023-01-13T01:00:41;-2.80;77.44
65203;HTU21D;51788;45.124;38.966;2023-01-13T01:03:07;-2.84;77.52
65203;HTU21D;51788;45.124;38.966;2023-01-13T01:05:39;-2.86;77.52
65203;HTU21D;51788;45.124;38.966;2023-01-13T01:08:05;-2.89;77.54
65203;HTU21D;51788;45.124;38.966;2023-01-13T01:10:31;-2.88;77.53
65203;HTU21D;51788;45.124;38.966;2023-01-13T01:12:57;-2.89;77.49
65203;HTU21D;51788;45.124;38.966;2023-01-13T01:15:23;-2.89;77.50
65203;HTU21D;51788;45.124;38.966;2023-01-13T01:17:49;-2.89;77.44
65203;HTU21D;51788;45.124;38.966;2023-01-13T01:20:15;-2.91;77.40
65203;HTU21D;51788;45.124;38.966;2023-01-13T01:22:41;-2.94;77.44
65203;HTU21D;51788;45.124;38.966;2023-01-13T01:25:07;-2.98;77.53
65203;HTU21D;51788;45.124;38.966;2023-01-13T01:27:33;-3.01;77.59
65203;HTU21D;51788;45.124;38.966;2023-01-13T01:29:59;-3.02;77.60
65203;HTU21D;51788;45.124;38.966;2023-01-13T01:32:25;-3.08;77.60
65203;HTU21D;51788;45.124;38.966;2023-01-13T01:34:51;-3.13;77.69
65203;HTU21D;51788;45.124;38.966;2023-01-13T01:37:17;-3.20;77.76
65203;HTU21D;51788;45.124;38.966;2023-01-13T01:39:43;-3.26;77.78
65203;HTU21D;51788;45.124;38.966;2023-01-13T01:42:14;-3.32;77.85
65203;HTU21D;51788;45.124;38.966;2023-01-13T01:45:14;-3.38;77.82
65203;HTU21D;51788;45.124;38.966;2023-01-13T01:47:41;-3.42;77.86
65203;HTU21D;51788;45.124;38.966;2023-01-13T01:50:08;-3.49;77.85
65203;HTU21D;51788;45.124;38.966;2023-01-13T01:52:40;-3.55;77.87
65203;HTU21D;51788;45.124;38.966;2023-01-13T01:55:28;-3.60;77.90
65203;HTU21D;51788;45.124;38.966;2023-01-13T01:58:15;-3.67;77.96
65203;HTU21D;51788;45.124;38.966;2023-01-13T02:00:41;-3.75;78.00
65203;HTU21D;51788;45.124;38.966;2023-01-13T02:03:08;-3.79;78.09
65203;HTU21D;51788;45.124;38.966;2023-01-13T02:05:34;-3.83;78.02
65203;HTU21D;51788;45.124;38.966;2023-01-13T02:08:01;-3.86;78.00
65203;HTU21D;51788;45.124;38.966;2023-01-13T02:10:29;-3.89;77.98
65203;HTU21D;51788;45.124;38.966;2023-01-13T02:12:58;-3.86;77.89
65203;HTU21D;51788;45.124;38.966;2023-01-13T02:15:47;-3.89;77.80
65203;HTU21D;51788;45.124;38.966;2023-01-13T02:18:52;-3.87;77.87
65203;HTU21D;51788;45.124;38.966;2023-01-13T02:32:32;-3.65;78.46
65203;HTU21D;51788;45.124;38.966;2023-01-13T02:37:55;-3.63;78.34
65203;HTU21D;51788;45.124;38.966;2023-01-13T02:43:19;-3.57;78.75
65203;HTU21D;51788;45.124;38.966;2023-01-13T02:46:07;-3.56;78.92
65203;HTU21D;51788;45.124;38.966;2023-01-13T02:48:35;-3.56;78.62
65203;HTU21D;51788;45.124;38.966;2023-01-13T02:51:06;-3.64;78.56
65203;HTU21D;51788;45.124;38.966;2023-01-13T02:53:37;-3.69;78.57
65203;HTU21D;51788;45.124;38.966;2023-01-13T02:56:05;-3.69;78.73
65203;HTU21D;51788;45.124;38.966;2023-01-13T02:58:34;-3.64;78.63
65203;HTU21D;51788;45.124;38.966;2023-01-13T03:01:01;-3.57;78.85
65203;HTU21D;51788;45.124;38.966;2023-01-13T03:03:27;-3.52;78.82
65203;HTU21D;51788;45.124;38.966;2023-01-13T03:05:59;-3.46;79.50
65203;HTU21D;51788;45.124;38.966;2023-01-13T03:11:12;-3.50;79.53
65203;HTU21D;51788;45.124;38.966;2023-01-13T03:13:52;-3.52;79.91
65203;HTU21D;51788;45.124;38.966;2023-01-13T03:20:00;-3.55;80.46
65203;HTU21D;51788;45.124;38.966;2023-01-13T03:22:33;-3.58;80.40
65203;HTU21D;51788;45.124;38.966;2023-01-13T03:25:17;-3.62;80.41
65203;HTU21D;51788;45.124;38.966;2023-01-13T03:30:32;-3.64;80.55
65203;HTU21D;51788;45.124;38.966;2023-01-13T03:33:11;-3.64;80.63
65203;HTU21D;51788;45.124;38.966;2023-01-13T03:35:42;-3.63;80.69
65203;HTU21D;51788;45.124;38.966;2023-01-13T03:38:12;-3.67;80.93
65203;HTU21D;51788;45.124;38.966;2023-01-13T03:40:48;-3.69;80.65
65203;HTU21D;51788;45.124;38.966;2023-01-13T03:43:20;-3.68;80.30
65203;HTU21D;51788;45.124;38.966;2023-01-13T03:46:11;-3.66;80.25
65203;HTU21D;51788;45.124;38.966;2023-01-13T03:48:40;-3.70;80.70
65203;HTU21D;51788;45.124;38.966;2023-01-13T03:51:10;-3.77;80.64
65203;HTU21D;51788;45.124;38.966;2023-01-13T03:53:44;-3.81;80.52
65203;HTU21D;51788;45.124;38.966;2023-01-13T03:59:01;-3.89;80.88
65203;HTU21D;51788;45.124;38.966;2023-01-13T04:01:43;-3.92;80.84
65203;HTU21D;51788;45.124;38.966;2023-01-13T04:04:17;-3.95;80.93
65203;HTU21D;51788;45.124;38.966;2023-01-13T04:06:59;-3.96;81.03
65203;HTU21D;51788;45.124;38.966;2023-01-13T04:09:49;-3.99;80.58
65203;HTU21D;51788;45.124;38.966;2023-01-13T04:12:24;-4.01;80.40
65203;HTU21D;51788;45.124;38.966;2023-01-13T04:14:52;-4.00;80.48
65203;HTU21D;51788;45.124;38.966;2023-01-13T04:17:19;-4.00;80.33
65203;HTU21D;51788;45.124;38.966;2023-01-13T04:19:45;-3.99;80.72
65203;HTU21D;51788;45.124;38.966;2023-01-13T04:22:11;-4.02;80.79
65203;HTU21D;51788;45.124;38.966;2023-01-13T04:24:37;-4.01;80.83
65203;HTU21D;51788;45.124;38.966;2023-01-13T04:27:03;-4.05;80.63
65203;HTU21D;51788;45.124;38.966;2023-01-13T04:29:29;-4.04;80.68
65203;HTU21D;51788;45.124;38.966;2023-01-13T04:31:55;-4.04;80.56
65203;HTU21D;51788;45.124;38.966;2023-01-13T04:34:21;-4.04;80.39
65203;HTU21D;51788;45.124;38.966;2023-01-13T04:36:47;-4.00;80.30
65203;HTU21D;51788;45.124;38.966;2023-01-13T04:39:12;-3.99;80.33
65203;HTU21D;51788;45.124;38.966;2023-01-13T04:41:38;-3.99;80.67
65203;HTU21D;51788;45.124;38.966;2023-01-13T04:44:22;-4.00;80.78
65203;HTU21D;51788;45.124;38.966;2023-01-13T04:46:48;-4.01;80.64
65203;HTU21D;51788;45.124;38.966;2023-01-13T04:49:14;-4.01;80.56
65203;HTU21D;51788;45.124;38.966;2023-01-13T04:51:40;-4.00;80.62
65203;HTU21D;51788;45.124;38.966;2023-01-13T04:54:06;-4.01;80.60
65203;HTU21D;51788;45.124;38.966;2023-01-13T04:56:32;-3.98;80.69
65203;HTU21D;51788;45.124;38.966;2023-01-13T04:58:58;-3.95;80.69
65203;HTU21D;51788;45.124;38.966;2023-01-13T05:01:23;-3.94;80.76
65203;HTU21D;51788;45.124;38.966;2023-01-13T05:03:49;-3.93;80.72
65203;HTU21D;51788;45.124;38.966;2023-01-13T05:06:15;-3.93;80.79
65203;HTU21D;51788;45.124;38.966;2023-01-13T05:08:41;-3.93;80.88
65203;HTU21D;51788;45.124;38.966;2023-01-13T05:11:07;-3.93;80.91
65203;HTU21D;51788;45.124;38.966;2023-01-13T05:13:52;-3.93;80.82
65203;HTU21D;51788;45.124;38.966;2023-01-13T05:16:36;-3.94;80.81
65203;HTU21D;51788;45.124;38.966;2023-01-13T05:19:21;-3.92;80.68
65203;HTU21D;51788;45.124;38.966;2023-01-13T05:21:46;-3.89;80.69
65203;HTU21D;51788;45.124;38.966;2023-01-13T05:24:31;-3.86;80.56
65203;HTU21D;51788;45.124;38.966;2023-01-13T05:27:15;-3.82;80.46
65203;HTU21D;51788;45.124;38.966;2023-01-13T05:29:41;-3.78;80.49
65203;HTU21D;51788;45.124;38.966;2023-01-13T05:32:07;-3.77;80.91
65203;HTU21D;51788;45.124;38.966;2023-01-13T05:34:33;-3.77;80.65
65203;HTU21D;51788;45.124;38.966;2023-01-13T05:36:59;-3.72;80.91
65203;HTU21D;51788;45.124;38.966;2023-01-13T05:39:28;-3.74;80.88
65203;HTU21D;51788;45.124;38.966;2023-01-13T05:42:14;-3.72;80.78
65203;HTU21D;51788;45.124;38.966;2023-01-13T05:44:58;-3.69;80.92
65203;HTU21D;51788;45.124;38.966;2023-01-13T05:47:24;-3.68;81.08
65203;HTU21D;51788;45.124;38.966;2023-01-13T05:49:50;-3.67;81.14
65203;HTU21D;51788;45.124;38.966;2023-01-13T05:52:16;-3.66;80.88
65203;HTU21D;51788;45.124;38.966;2023-01-13T05:54:42;-3.63;80.80
65203;HTU21D;51788;45.124;38.966;2023-01-13T05:57:08;-3.58;81.20
65203;HTU21D;51788;45.124;38.966;2023-01-13T05:59:34;-3.55;81.03
65203;HTU21D;51788;45.124;38.966;2023-01-13T06:02:00;-3.51;81.82
65203;HTU21D;51788;45.124;38.966;2023-01-13T06:04:25;-3.52;81.83
65203;HTU21D;51788;45.124;38.966;2023-01-13T06:06:51;-3.50;81.62
65203;HTU21D;51788;45.124;38.966;2023-01-13T06:09:17;-3.40;81.38
65203;HTU21D;51788;45.124;38.966;2023-01-13T06:11:45;-3.31;81.18
65203;HTU21D;51788;45.124;38.966;2023-01-13T06:14:11;-3.21;81.04
65203;HTU21D;51788;45.124;38.966;2023-01-13T06:16:37;-3.13;80.91
65203;HTU21D;51788;45.124;38.966;2023-01-13T06:19:03;-3.06;80.75
65203;HTU21D;51788;45.124;38.966;2023-01-13T06:21:36;-2.94;81.12
65203;HTU21D;51788;45.124;38.966;2023-01-13T06:24:02;-2.92;80.98
65203;HTU21D;51788;45.124;38.966;2023-01-13T06:26:30;-2.89;80.87
65203;HTU21D;51788;45.124;38.966;2023-01-13T06:29:00;-2.83;80.85
65203;HTU21D;51788;45.124;38.966;2023-01-13T06:31:26;-2.87;80.91
65203;HTU21D;51788;45.124;38.966;2023-01-13T06:33:59;-2.93;81.03
65203;HTU21D;51788;45.124;38.966;2023-01-13T06:36:31;-2.89;80.89
65203;HTU21D;51788;45.124;38.966;2023-01-13T06:39:01;-2.77;81.01
65203;HTU21D;51788;45.124;38.966;2023-01-13T06:41:30;-2.74;80.82
65203;HTU21D;51788;45.124;38.966;2023-01-13T06:44:15;-2.68;80.72
65203;HTU21D;51788;45.124;38.966;2023-01-13T06:46:41;-2.66;80.68
65203;HTU21D;51788;45.124;38.966;2023-01-13T06:49:07;-2.67;80.71
65203;HTU21D;51788;45.124;38.966;2023-01-13T06:51:33;-2.64;80.53
65203;HTU21D;51788;45.124;38.966;2023-01-13T06:53:59;-2.46;80.78
65203;HTU21D;51788;45.124;38.966;2023-01-13T06:56:25;-2.21;80.57
65203;HTU21D;51788;45.124;38.966;2023-01-13T06:58:51;-2.02;80.16
65203;HTU21D;51788;45.124;38.966;2023-01-13T07:01:17;-1.91;79.93
65203;HTU21D;51788;45.124;38.966;2023-01-13T07:03:43;-1.86;79.75
65203;HTU21D;51788;45.124;38.966;2023-01-13T07:06:09;-1.82;79.80
65203;HTU21D;51788;45.124;38.966;2023-01-13T07:08:35;-1.74;79.85
65203;HTU21D;51788;45.124;38.966;2023-01-13T07:11:01;-1.73;79.67
65203;HTU21D;51788;45.124;38.966;2023-01-13T07:13:27;-1.80;79.63
65203;HTU21D;51788;45.124;38.966;2023-01-13T07:16:12;-1.73;79.89
65203;HTU21D;51788;45.124;38.966;2023-01-13T07:18:38;-1.61;79.77
65203;HTU21D;51788;45.124;38.966;2023-01-13T07:21:06;-1.50;79.69
65203;HTU21D;51788;45.124;38.966;2023-01-13T07:23:37;-1.48;79.53
65203;HTU21D;51788;45.124;38.966;2023-01-13T07:26:07;-1.52;79.40
65203;HTU21D;51788;45.124;38.966;2023-01-13T07:28:34;-1.58;79.47
65203;HTU21D;51788;45.124;38.966;2023-01-13T07:31:00;-1.60;79.66
65203;HTU21D;51788;45.124;38.966;2023-01-13T07:33:26;-1.60;79.70
65203;HTU21D;51788;45.124;38.966;2023-01-13T07:35:57;-1.45;79.75
65203;HTU21D;51788;45.124;38.966;2023-01-13T07:38:24;-1.38;79.59
65203;HTU21D;51788;45.124;38.966;2023-01-13T07:40:50;-1.31;79.54
65203;HTU21D;51788;45.124;38.966;2023-01-13T07:43:16;-1.32;79.44
65203;HTU21D;51788;45.124;38.966;2023-01-13T07:45:59;-1.24;79.52
65203;HTU21D;51788;45.124;38.966;2023-01-13T07:48:26;-1.14;79.44
65203;HTU21D;51788;45.124;38.966;2023-01-13T07:50:53;-1.06;79.39
65203;HTU21D;51788;45.124;38.966;2023-01-13T07:53:19;-1.04;79.33
65203;HTU21D;51788;45.124;38.966;2023-01-13T07:55:45;-0.96;79.42
65203;HTU21D;51788;45.124;38.966;2023-01-13T07:58:11;-0.96;79.19
65203;HTU21D;51788;45.124;38.966;2023-01-13T08:00:37;-0.89;79.37
65203;HTU21D;51788;45.124;38.966;2023-01-13T08:03:03;-0.75;79.24
65203;HTU21D;51788;45.124;38.966;2023-01-13T08:05:29;-0.69;79.05
65203;HTU21D;51788;45.124;38.966;2023-01-13T08:07:55;-0.56;79.06
65203;HTU21D;51788;45.124;38.966;2023-01-13T08:10:21;-0.52;78.82
65203;HTU21D;51788;45.124;38.966;2023-01-13T08:12:48;-0.51;78.92
65203;HTU21D;51788;45.124;38.966;2023-01-13T08:15:32;-0.41;78.88
65203;HTU21D;51788;45.124;38.966;2023-01-13T08:17:59;-0.45;78.63
65203;HTU21D;51788;45.124;38.966;2023-01-13T08:20:25;-0.52;78.87
65203;HTU21D;51788;45.124;38.966;2023-01-13T08:22:58;-0.50;78.87
65203;HTU21D;51788;45.124;38.966;2023-01-13T08:25:25;-0.56;78.95
65203;HTU21D;51788;45.124;38.966;2023-01-13T08:27:52;-0.56;79.06
65203;HTU21D;51788;45.124;38.966;2023-01-13T08:30:19;-0.49;79.03
65203;HTU21D;51788;45.124;38.966;2023-01-13T08:32:46;-0.42;78.94
65203;HTU21D;51788;45.124;38.966;2023-01-13T08:35:13;-0.23;79.00
65203;HTU21D;51788;45.124;38.966;2023-01-13T08:37:39;-0.08;78.55
65203;HTU21D;51788;45.124;38.966;2023-01-13T08:40:06;-0.07;78.43
65203;HTU21D;51788;45.124;38.966;2023-01-13T08:42:33;-0.03;78.52
65203;HTU21D;51788;45.124;38.966;2023-01-13T08:44:58;0.06;78.52
65203;HTU21D;51788;45.124;38.966;2023-01-13T08:47:26;0.12;78.33
65203;HTU21D;51788;45.124;38.966;2023-01-13T08:49:53;0.13;78.34
65203;HTU21D;51788;45.124;38.966;2023-01-13T08:52:19;0.14;78.40
65203;HTU21D;51788;45.124;38.966;2023-01-13T08:54:45;0.13;78.48
65203;HTU21D;51788;45.124;38.966;2023-01-13T08:57:11;0.21;78.37
65203;HTU21D;51788;45.124;38.966;2023-01-13T08:59:37;0.27;78.27
65203;HTU21D;51788;45.124;38.966;2023-01-13T09:02:14;0.37;78.30
65203;HTU21D;51788;45.124;38.966;2023-01-13T09:04:41;0.47;78.10
65203;HTU21D;51788;45.124;38.966;2023-01-13T09:07:08;0.55;78.03
65203;HTU21D;51788;45.124;38.966;2023-01-13T09:09:35;0.61;77.76
65203;HTU21D;51788;45.124;38.966;2023-01-13T09:12:02;0.63;77.72
65203;HTU21D;51788;45.124;38.966;2023-01-13T09:14:47;0.64;77.66
65203;HTU21D;51788;45.124;38.966;2023-01-13T09:17:13;0.68;77.60
65203;HTU21D;51788;45.124;38.966;2023-01-13T09:19:39;0.74;77.18
65203;HTU21D;51788;45.124;38.966;2023-01-13T09:22:08;0.75;77.32
65203;HTU21D;51788;45.124;38.966;2023-01-13T09:24:34;0.77;77.15
65203;HTU21D;51788;45.124;38.966;2023-01-13T09:27:00;0.79;77.34
65203;HTU21D;51788;45.124;38.966;2023-01-13T09:29:26;0.88;77.08
65203;HTU21D;51788;45.124;38.966;2023-01-13T09:31:52;0.95;77.11
65203;HTU21D;51788;45.124;38.966;2023-01-13T09:34:19;1.02;77.05
65203;HTU21D;51788;45.124;38.966;2023-01-13T09:37:06;1.09;77.06
65203;HTU21D;51788;45.124;38.966;2023-01-13T09:39:33;1.13;77.10
65203;HTU21D;51788;45.124;38.966;2023-01-13T09:45:21;1.27;77.02
65203;HTU21D;51788;45.124;38.966;2023-01-13T09:48:14;1.47;76.82
65203;HTU21D;51788;45.124;38.966;2023-01-13T09:50:58;1.57;76.53
65203;HTU21D;51788;45.124;38.966;2023-01-13T09:53:32;1.61;76.51
65203;HTU21D;51788;45.124;38.966;2023-01-13T09:55:59;1.64;75.92
65203;HTU21D;51788;45.124;38.966;2023-01-13T09:58:26;1.66;76.18
65203;HTU21D;51788;45.124;38.966;2023-01-13T10:00:58;1.85;76.22
65203;HTU21D;51788;45.124;38.966;2023-01-13T10:03:32;2.05;75.85
65203;HTU21D;51788;45.124;38.966;2023-01-13T10:06:01;2.03;75.89
65203;HTU21D;51788;45.124;38.966;2023-01-13T10:08:37;2.05;75.44
65203;HTU21D;51788;45.124;38.966;2023-01-13T10:11:28;2.12;75.06
65203;HTU21D;51788;45.124;38.966;2023-01-13T10:17:11;2.17;75.18
65203;HTU21D;51788;45.124;38.966;2023-01-13T10:27:49;2.85;73.87
65203;HTU21D;51788;45.124;38.966;2023-01-13T10:32:44;2.67;74.86
65203;HTU21D;51788;45.124;38.966;2023-01-13T10:35:11;2.66;74.92
65203;HTU21D;51788;45.124;38.966;2023-01-13T10:37:37;2.72;74.25
65203;HTU21D;51788;45.124;38.966;2023-01-13T10:40:03;2.72;74.29
65203;HTU21D;51788;45.124;38.966;2023-01-13T10:42:31;2.74;73.80
65203;HTU21D;51788;45.124;38.966;2023-01-13T10:44:59;2.76;74.16
65203;HTU21D;51788;45.124;38.966;2023-01-13T10:47:33;2.78;73.86
65203;HTU21D;51788;45.124;38.966;2023-01-13T10:52:33;2.81;74.08
65203;HTU21D;51788;45.124;38.966;2023-01-13T10:57:49;2.87;73.85
65203;HTU21D;51788;45.124;38.966;2023-01-13T11:03:14;2.90;72.80
65203;HTU21D;51788;45.124;38.966;2023-01-13T11:05:56;2.88;73.21
65203;HTU21D;51788;45.124;38.966;2023-01-13T11:08:29;2.89;73.33
65203;HTU21D;51788;45.124;38.966;2023-01-13T11:10:58;2.93;72.97
65203;HTU21D;51788;45.124;38.966;2023-01-13T11:13:38;2.95;73.03
65203;HTU21D;51788;45.124;38.966;2023-01-13T11:16:25;2.98;72.89
65203;HTU21D;51788;45.124;38.966;2023-01-13T11:18:57;3.05;71.69
65203;HTU21D;51788;45.124;38.966;2023-01-13T11:21:54;3.02;72.25
65203;HTU21D;51788;45.124;38.966;2023-01-13T11:24:37;3.04;72.24
65203;HTU21D;51788;45.124;38.966;2023-01-13T11:27:12;3.08;72.74
65203;HTU21D;51788;45.124;38.966;2023-01-13T11:30:04;3.21;72.64
65203;HTU21D;51788;45.124;38.966;2023-01-13T11:32:51;3.24;72.08
65203;HTU21D;51788;45.124;38.966;2023-01-13T11:35:19;3.26;72.45
65203;HTU21D;51788;45.124;38.966;2023-01-13T11:37:56;3.29;72.35
65203;HTU21D;51788;45.124;38.966;2023-01-13T11:40:41;3.35;71.82
65203;HTU21D;51788;45.124;38.966;2023-01-13T11:43:16;3.34;71.93
65203;HTU21D;51788;45.124;38.966;2023-01-13T11:45:55;3.35;72.24
65203;HTU21D;51788;45.124;38.966;2023-01-13T11:48:25;3.38;72.37
65203;HTU21D;51788;45.124;38.966;2023-01-13T12:04:40;3.50;71.90
65203;HTU21D;51788;45.124;38.966;2023-01-13T12:10:14;3.47;71.77
65203;HTU21D;51788;45.124;38.966;2023-01-13T12:13:09;3.50;71.52
65203;HTU21D;51788;45.124;38.966;2023-01-13T12:21:47;3.53;70.93
65203;HTU21D;51788;45.124;38.966;2023-01-13T12:26:57;3.49;71.21
65203;HTU21D;51788;45.124;38.966;2023-01-13T12:29:36;3.48;70.87
65203;HTU21D;51788;45.124;38.966;2023-01-13T12:32:10;3.47;71.32
65203;HTU21D;51788;45.124;38.966;2023-01-13T12:37:47;3.54;71.35
65203;HTU21D;51788;45.124;38.966;2023-01-13T12:40:21;3.58;71.22
65203;HTU21D;51788;45.124;38.966;2023-01-13T12:51:36;3.50;71.11
65203;HTU21D;51788;45.124;38.966;2023-01-13T13:02:37;3.57;70.95
65203;HTU21D;51788;45.124;38.966;2023-01-13T13:08:13;3.56;70.91
65203;HTU21D;51788;45.124;38.966;2023-01-13T13:10:53;3.55;71.10
65203;HTU21D;51788;45.124;38.966;2023-01-13T13:13:40;3.56;70.77
65203;HTU21D;51788;45.124;38.966;2023-01-13T13:18:51;3.49;71.16
65203;HTU21D;51788;45.124;38.966;2023-01-13T13:21:18;3.52;70.81
65203;HTU21D;51788;45.124;38.966;2023-01-13T13:23:45;3.50;71.03
65203;HTU21D;51788;45.124;38.966;2023-01-13T13:26:39;3.47;71.19
65203;HTU21D;51788;45.124;38.966;2023-01-13T13:40:04;3.33;71.22
65203;HTU21D;51788;45.124;38.966;2023-01-13T13:42:55;3.27;71.33
65203;HTU21D;51788;45.124;38.966;2023-01-13T13:45:49;3.23;71.44
65203;HTU21D;51788;45.124;38.966;2023-01-13T13:48:33;3.16;71.58
65203;HTU21D;51788;45.124;38.966;2023-01-13T13:51:02;3.10;71.68
65203;HTU21D;51788;45.124;38.966;2023-01-13T13:53:33;3.04;71.79
65203;HTU21D;51788;45.124;38.966;2023-01-13T13:56:02;2.99;71.91
65203;HTU21D;51788;45.124;38.966;2023-01-13T13:58:31;2.94;72.02
65203;HTU21D;51788;45.124;38.966;2023-01-13T14:01:00;2.87;72.12
65203;HTU21D;51788;45.124;38.966;2023-01-13T14:03:35;2.81;72.21
65203;HTU21D;51788;45.124;38.966;2023-01-13T14:06:04;2.75;72.29
65203;HTU21D;51788;45.124;38.966;2023-01-13T14:08:34;2.69;72.39
65203;HTU21D;51788;45.124;38.966;2023-01-13T14:11:01;2.62;72.47
65203;HTU21D;51788;45.124;38.966;2023-01-13T14:13:29;2.57;72.53
65203;HTU21D;51788;45.124;38.966;2023-01-13T14:16:02;2.51;72.64
65203;HTU21D;51788;45.124;38.966;2023-01-13T14:18:31;2.43;72.74
65203;HTU21D;51788;45.124;38.966;2023-01-13T14:21:04;2.38;72.80
65203;HTU21D;51788;45.124;38.966;2023-01-13T14:23:55;2.34;72.88
65203;HTU21D;51788;45.124;38.966;2023-01-13T14:26:27;2.30;72.87
65203;HTU21D;51788;45.124;38.966;2023-01-13T14:28:54;2.24;72.92
65203;HTU21D;51788;45.124;38.966;2023-01-13T14:31:21;2.22;72.92
65203;HTU21D;51788;45.124;38.966;2023-01-13T14:33:49;2.13;73.00
65203;HTU21D;51788;45.124;38.966;2023-01-13T14:36:22;2.07;73.09
65203;HTU21D;51788;45.124;38.966;2023-01-13T14:44:20;1.83;73.43
65203;HTU21D;51788;45.124;38.966;2023-01-13T14:46:48;1.79;73.47
65203;HTU21D;51788;45.124;38.966;2023-01-13T14:51:46;1.75;73.48
65203;HTU21D;51788;45.124;38.966;2023-01-13T15:04:50;1.55;73.70
65203;HTU21D;51788;45.124;38.966;2023-01-13T15:07:29;1.53;73.70
65203;HTU21D;51788;45.124;38.966;2023-01-13T15:10:00;1.51;73.72
65203;HTU21D;51788;45.124;38.966;2023-01-13T15:12:31;1.48;73.76
65203;HTU21D;51788;45.124;38.966;2023-01-13T15:15:02;1.47;73.76
65203;HTU21D;51788;45.124;38.966;2023-01-13T15:17:29;1.43;73.76
65203;HTU21D;51788;45.124;38.966;2023-01-13T15:19:55;1.41;73.81
65203;HTU21D;51788;45.124;38.966;2023-01-13T15:22:21;1.38;73.85
65203;HTU21D;51788;45.124;38.966;2023-01-13T15:24:46;1.35;73.90
65203;HTU21D;51788;45.124;38.966;2023-01-13T15:27:17;1.32;73.95
65203;HTU21D;51788;45.124;38.966;2023-01-13T15:29:44;1.27;73.97
65203;HTU21D;51788;45.124;38.966;2023-01-13T15:32:18;1.25;74.03
65203;HTU21D;51788;45.124;38.966;2023-01-13T15:34:45;1.21;74.05
65203;HTU21D;51788;45.124;38.966;2023-01-13T15:37:14;1.19;74.12
65203;HTU21D;51788;45.124;38.966;2023-01-13T15:39:42;1.18;74.14
65203;HTU21D;51788;45.124;38.966;2023-01-13T15:42:12;1.17;74.15
65203;HTU21D;51788;45.124;38.966;2023-01-13T15:44:57;1.14;74.17
65203;HTU21D;51788;45.124;38.966;2023-01-13T15:47:42;1.11;74.19
65203;HTU21D;51788;45.124;38.966;2023-01-13T15:50:15;1.14;74.19
65203;HTU21D;51788;45.124;38.966;2023-01-13T15:52:42;1.10;74.18
65203;HTU21D;51788;45.124;38.966;2023-01-13T15:55:08;1.06;74.22
65203;HTU21D;51788;45.124;38.966;2023-01-13T15:57:37;1.04;74.28
65203;HTU21D;51788;45.124;38.966;2023-01-13T16:00:10;0.97;74.34
65203;HTU21D;51788;45.124;38.966;2023-01-13T16:02:37;0.94;74.36
65203;HTU21D;51788;45.124;38.966;2023-01-13T16:05:04;0.91;74.40
65203;HTU21D;51788;45.124;38.966;2023-01-13T16:07:30;0.88;74.43
65203;HTU21D;51788;45.124;38.966;2023-01-13T16:09:57;0.83;74.46
65203;HTU21D;51788;45.124;38.966;2023-01-13T16:12:23;0.81;74.53
65203;HTU21D;51788;45.124;38.966;2023-01-13T16:14:48;0.80;74.53
65203;HTU21D;51788;45.124;38.966;2023-01-13T16:17:17;0.79;74.54
65203;HTU21D;51788;45.124;38.966;2023-01-13T16:19:44;0.78;74.53
65203;HTU21D;51788;45.124;38.966;2023-01-13T16:22:12;0.75;74.57
65203;HTU21D;51788;45.124;38.966;2023-01-13T16:24:38;0.74;74.57
65203;HTU21D;51788;45.124;38.966;2023-01-13T16:27:19;0.73;74.59
65203;HTU21D;51788;45.124;38.966;2023-01-13T16:29:46;0.69;74.56
65203;HTU21D;51788;45.124;38.966;2023-01-13T16:32:13;0.67;74.63
65203;HTU21D;51788;45.124;38.966;2023-01-13T16:34:39;0.65;74.64
65203;HTU21D;51788;45.124;38.966;2023-01-13T16:37:20;0.64;74.69
65203;HTU21D;51788;45.124;38.966;2023-01-13T16:39:47;0.60;74.68
65203;HTU21D;51788;45.124;38.966;2023-01-13T16:42:13;0.59;74.73
65203;HTU21D;51788;45.124;38.966;2023-01-13T16:44:39;0.58;74.72
65203;HTU21D;51788;45.124;38.966;2023-01-13T16:47:09;0.57;74.68
65203;HTU21D;51788;45.124;38.966;2023-01-13T16:49:36;0.50;74.69
65203;HTU21D;51788;45.124;38.966;2023-01-13T16:52:03;0.43;74.83
65203;HTU21D;51788;45.124;38.966;2023-01-13T16:54:29;0.37;74.97
65203;HTU21D;51788;45.124;38.966;2023-01-13T16:56:55;0.32;75.05
65203;HTU21D;51788;45.124;38.966;2023-01-13T16:59:21;0.28;75.09
65203;HTU21D;51788;45.124;38.966;2023-01-13T17:01:47;0.25;75.12
65203;HTU21D;51788;45.124;38.966;2023-01-13T17:04:18;0.22;75.15
65203;HTU21D;51788;45.124;38.966;2023-01-13T17:07:05;0.20;75.18
65203;HTU21D;51788;45.124;38.966;2023-01-13T17:09:31;0.17;75.21
65203;HTU21D;51788;45.124;38.966;2023-01-13T17:11:57;0.18;75.18
65203;HTU21D;51788;45.124;38.966;2023-01-13T17:14:24;0.13;75.13
65203;HTU21D;51788;45.124;38.966;2023-01-13T17:16:52;0.07;75.21
65203;HTU21D;51788;45.124;38.966;2023-01-13T17:19:19;0.02;75.29
65203;HTU21D;51788;45.124;38.966;2023-01-13T17:21:45;-0.00;75.34
65203;HTU21D;51788;45.124;38.966;2023-01-13T17:24:12;-0.03;75.34
65203;HTU21D;51788;45.124;38.966;2023-01-13T17:26:44;-0.07;75.37
65203;HTU21D;51788;45.124;38.966;2023-01-13T17:29:22;-0.08;75.36
65203;HTU21D;51788;45.124;38.966;2023-01-13T17:31:50;-0.08;75.32
65203;HTU21D;51788;45.124;38.966;2023-01-13T17:34:17;-0.08;75.33
65203;HTU21D;51788;45.124;38.966;2023-01-13T17:36:43;-0.09;75.32
65203;HTU21D;51788;45.124;38.966;2023-01-13T17:39:15;-0.09;75.25
65203;HTU21D;51788;45.124;38.966;2023-01-13T17:41:41;-0.11;75.25
65203;HTU21D;51788;45.124;38.966;2023-01-13T17:44:08;-0.12;75.26